Time;durP1;ratioP1;P1;durP2;ratioP2;P2;SDS_P1;SDS_P2;PMS_P1;PMS_P2;Temp;Humidity;BMP_temperature;BMP_pressure;BME280_temperature;BME280_humidity;BME280_pressure;Samples;Min_cycle;Max_cycle;Signal;HPM_P1;HPM_P2
2021/10/11 03:23:47;;;;;;;;;;;;;;;7.96;100.00;100531.72;5443927;23;19934;-76
2021/10/11 03:26:12;;;;;;;;;;;;;;;7.96;100.00;100528.19;5012466;28;19944;-77
2021/10/11 03:28:37;;;;;;;;;;;;;;;7.99;100.00;100523.72;5012492;28;20368;-76
2021/10/11 03:31:03;;;;;;;;;;;;;;;8.01;100.00;100515.78;5012580;28;19922;-77
2021/10/11 03:33:28;;;;;;;;;;;;;;;8.01;100.00;100515.78;4990412;28;19918;-78
2021/10/11 03:35:53;;;;;;;;;;;;;;;8.04;100.00;100499.88;4994829;28;20442;-79
2021/10/11 03:38:19;;;;;;;;;;;;;;;8.05;100.00;100506.88;5011215;28;19918;-77
2021/10/11 03:40:44;;;;;;;;;;;;;;;8.09;100.00;100508.56;4990313;28;19969;-77
2021/10/11 03:43:09;;;;;;;;;;;;;;;8.15;100.00;100502.28;4988909;28;20336;-76
2021/10/11 03:45:35;;;;;;;;;;;;;;;8.15;100.00;100497.00;4994541;28;19917;-78
2021/10/11 03:48:00;;;;;;;;;;;;;;;8.18;100.00;100508.38;5012351;28;19924;-79
2021/10/11 03:50:25;;;;;;;;;;;;;;;8.15;100.00;100513.72;5006473;28;20004;-79
2021/10/11 03:52:50;;;;;;;;;;;;;;;6.45;100.00;100517.63;4993287;28;19917;-79
2021/10/11 03:55:16;;;;;;;;;;;;;;;5.36;100.00;100525.88;5012176;28;20038;-78
2021/10/11 03:57:41;;;;;;;;;;;;;;;4.85;100.00;100530.69;5012226;28;19917;-77
2021/10/11 04:00:06;;;;;;;;;;;;;;;4.47;100.00;100535.31;4994578;28;19929;-77
2021/10/11 04:02:32;;;;;;;;;;;;;;;4.35;99.72;100532.75;4994642;28;20498;-78
2021/10/11 04:04:58;;;;;;;;;;;;;;;4.33;100.00;100530.13;5012297;28;20015;-79
2021/10/11 04:07:23;;;;;;;;;;;;;;;4.30;100.00;100531.91;5010858;28;20526;-78
2021/10/11 04:09:49;;;;;;;;;;;;;;;4.27;100.00;100532.78;5011798;28;20044;-78
2021/10/11 04:12:21;;;;;;;;;;;;;;;4.09;100.00;100538.16;4978093;28;20020;-78
2021/10/11 04:14:47;;;;;;;;;;;;;;;3.96;100.00;100539.94;5011793;28;19925;-78
2021/10/11 04:17:13;;;;;;;;;;;;;;;3.81;100.00;100536.50;5013812;28;19924;-78
2021/10/11 04:19:38;;;;;;;;;;;;;;;3.74;100.00;100537.38;5015670;28;19918;-77
2021/10/11 04:22:04;;;;;;;;;;;;;;;3.62;100.00;100542.66;5015991;28;19964;-78
2021/10/11 04:24:29;;;;;;;;;;;;;;;3.53;100.00;100535.69;5014216;28;19925;-79
2021/10/11 04:26:54;;;;;;;;;;;;;;;3.31;100.00;100542.72;5015765;28;19917;-77
2021/10/11 04:29:19;;;;;;;;;;;;;;;3.15;100.00;100551.47;5015765;28;19918;-78
2021/10/11 04:31:45;;;;;;;;;;;;;;;3.12;100.00;100554.06;5015723;28;19921;-77
2021/10/11 04:34:10;;;;;;;;;;;;;;;2.99;99.53;100558.44;5015540;28;19940;-78
2021/10/11 04:36:35;;;;;;;;;;;;;;;2.88;99.36;100561.91;5015495;28;19925;-78
2021/10/11 04:39:00;;;;;;;;;;;;;;;2.89;99.01;100560.19;5014337;28;19971;-77
2021/10/11 04:41:26;;;;;;;;;;;;;;;2.77;98.36;100566.25;5015608;28;20341;-77
2021/10/11 04:43:51;;;;;;;;;;;;;;;2.77;99.33;100562.78;5015425;28;20084;-79
2021/10/11 04:46:16;;;;;;;;;;;;;;;2.79;99.90;100559.28;5015337;28;19925;-78
2021/10/11 04:48:41;;;;;;;;;;;;;;;2.70;99.72;100554.06;4997314;28;19917;-79
2021/10/11 04:51:07;;;;;;;;;;;;;;;2.65;98.96;100551.44;5015370;28;20376;-77
2021/10/11 07:42:34;;;;;;;;;;;;;;;3.84;100.00;100653.59;4967387;23;19930;-78
2021/10/11 07:44:59;;;;;;;;;;;;;;;3.90;100.00;100647.47;4946659;28;19926;-79
2021/10/11 07:47:24;;;;;;;;;;;;;;;3.88;99.63;100652.72;4963154;28;19918;-78
2021/10/11 07:49:50;;;;;;;;;;;;;;;3.90;98.97;100644.84;4948843;28;19972;-79
2021/10/11 07:52:15;;;;;;;;;;;;;;;3.94;98.09;100642.22;4945912;28;19918;-79
2021/10/11 07:54:40;;;;;;;;;;;;;;;3.99;97.41;100640.44;4945955;28;19929;-78
2021/10/11 07:57:05;;;;;;;;;;;;;;;3.99;96.70;100645.69;4963499;28;19918;-78
2021/10/11 07:59:31;;;;;;;;;;;;;;;4.04;95.95;100647.41;4946458;28;19944;-79
2021/10/11 08:01:56;;;;;;;;;;;;;;;4.01;94.74;100648.31;4963911;28;19919;-79
2021/10/11 08:04:21;;;;;;;;;;;;;;;4.04;94.22;100643.06;4964377;28;19918;-79
2021/10/11 08:06:47;;;;;;;;;;;;;;;4.06;93.32;100653.56;4963162;28;19949;-79
2021/10/11 08:09:12;;;;;;;;;;;;;;;4.10;92.98;100652.66;4963114;28;19954;-79
2021/10/11 08:11:39;;;;;;;;;;;;;;;4.11;92.21;100655.28;4962008;28;19929;-78
2021/10/11 08:14:05;;;;;;;;;;;;;;;4.14;91.70;100655.25;4963304;28;19923;-79
2021/10/11 08:16:30;;;;;;;;;;;;;;;4.13;91.09;100658.78;4976727;28;19929;-78
2021/10/11 08:18:55;;;;;;;;;;;;;;;4.14;90.45;100659.66;4963370;28;19919;-79
2021/10/11 08:21:21;;;;;;;;;;;;;;;4.19;89.98;100665.75;4963181;28;19959;-79
2021/10/11 08:23:46;;;;;;;;;;;;;;;4.16;89.63;100673.63;4963703;28;19922;-79
2021/10/11 08:26:11;;;;;;;;;;;;;;;4.22;89.27;100675.38;4962173;28;19923;-78
2021/10/11 08:28:38;;;;;;;;;;;;;;;4.20;88.64;100672.75;4963106;28;19974;-78
2021/10/11 08:31:03;;;;;;;;;;;;;;;4.29;88.16;100684.97;4945574;28;19925;-79
2021/10/11 08:33:28;;;;;;;;;;;;;;;4.28;87.95;100689.34;4963632;28;19922;-80
2021/10/11 08:35:53;;;;;;;;;;;;;;;4.35;87.59;100669.19;4945860;28;20428;-79
2021/10/11 08:38:19;;;;;;;;;;;;;;;4.32;87.05;100666.59;4963607;28;19919;-79
2021/10/11 08:40:46;;;;;;;;;;;;;;;4.36;86.77;100671.81;4961534;28;19988;-78
2021/10/11 08:43:11;;;;;;;;;;;;;;;4.35;86.48;100679.69;4929187;29;20301;-78
2021/10/11 08:45:37;;;;;;;;;;;;;;;4.42;86.32;100678.81;4926347;29;19918;-78
2021/10/11 08:48:02;;;;;;;;;;;;;;;4.44;86.22;100673.56;4944226;29;19923;-78
2021/10/11 08:50:27;;;;;;;;;;;;;;;4.48;86.22;100678.81;4926863;29;19919;-78
2021/10/11 08:52:53;;;;;;;;;;;;;;;4.53;85.93;100674.41;4926116;29;19957;-78
2021/10/11 08:55:18;;;;;;;;;;;;;;;4.52;85.70;100667.41;4942511;29;19927;-78
2021/10/11 08:57:43;;;;;;;;;;;;;;;4.54;85.41;100675.25;4944987;28;19922;-78
2021/10/11 09:00:12;;;;;;;;;;;;;;;4.55;85.33;100675.25;4943646;29;19918;-78
2021/10/11 09:02:54;;;;;;;;;;;;;;;4.60;85.13;100677.88;4927188;29;19961;-79
2021/10/11 09:05:52;;;;;;;;;;;;;;;4.62;84.95;100673.47;4947389;29;20459;-79
2021/10/11 09:08:18;;;;;;;;;;;;;;;4.64;84.70;100673.47;4945178;29;20283;-79
2021/10/11 09:10:54;;;;;;;;;;;;;;;4.69;84.71;100653.31;4945046;29;20029;-79
2021/10/11 09:13:21;;;;;;;;;;;;;;;4.68;84.48;100646.34;4946925;29;20322;-78
2021/10/11 09:15:49;;;;;;;;;;;;;;;4.70;84.36;100641.94;4946746;29;20010;-80
2021/10/11 09:18:25;;;;;;;;;;;;;;;4.74;84.26;100643.69;4929729;29;19926;-79
2021/10/11 09:20:51;;;;;;;;;;;;;;;4.78;84.28;100642.75;4929926;29;19926;-80
2021/10/11 09:23:18;;;;;;;;;;;;;;;4.75;83.94;100644.53;4946905;29;19927;-79
2021/10/11 09:25:44;;;;;;;;;;;;;;;4.84;83.96;100658.50;4945906;29;20010;-79
2021/10/11 09:28:09;;;;;;;;;;;;;;;4.84;83.94;100658.50;4946708;29;20025;-79
2021/10/11 09:30:35;;;;;;;;;;;;;;;4.85;84.03;100659.34;4946870;29;19919;-80
2021/10/11 09:33:15;;;;;;;;;;;;;;;4.90;83.86;100652.34;4946683;29;20357;-78
2021/10/11 09:35:40;;;;;;;;;;;;;;;4.90;83.99;100663.72;4946912;29;19922;-79
2021/10/11 09:38:25;;;;;;;;;;;;;;;4.95;83.99;100666.31;4946178;29;19926;-78
2021/10/11 09:40:51;;;;;;;;;;;;;;;4.98;84.19;100665.41;4928159;29;19958;-79
2021/10/11 09:43:18;;;;;;;;;;;;;;;5.01;84.26;100670.66;4962398;28;19922;-78
2021/10/11 09:45:44;;;;;;;;;;;;;;;5.06;84.33;100661.88;4948736;28;20366;-79
2021/10/11 09:48:10;;;;;;;;;;;;;;;5.07;84.38;100666.25;4948037;28;19919;-78
2021/10/11 09:50:36;;;;;;;;;;;;;;;5.11;84.31;100669.72;4965595;28;20374;-79
2021/10/11 09:53:02;;;;;;;;;;;;;;;5.13;84.26;100669.72;4965554;28;20353;-79
2021/10/11 09:55:27;;;;;;;;;;;;;;;5.15;84.37;100658.28;4947102;28;19929;-78
2021/10/11 09:57:53;;;;;;;;;;;;;;;5.17;84.40;100661.81;4946986;28;20280;-79
2021/10/11 10:00:18;;;;;;;;;;;;;;;5.24;84.42;100658.25;4947909;28;19925;-79
2021/10/11 10:02:46;;;;;;;;;;;;;;;5.24;84.50;100652.97;4965428;28;19918;-79
2021/10/11 10:05:15;;;;;;;;;;;;;;;5.28;84.58;100654.72;4965464;28;20296;-79
2021/10/11 10:07:42;;;;;;;;;;;;;;;5.29;84.37;100655.59;4964944;28;20017;-78
2021/10/11 10:10:08;;;;;;;;;;;;;;;5.33;84.45;100651.16;4964125;28;19919;-79
2021/10/11 10:12:41;;;;;;;;;;;;;;;5.32;84.47;100644.19;4947429;28;19918;-79
2021/10/11 10:15:07;;;;;;;;;;;;;;;5.34;84.35;100648.53;4947017;28;20298;-79
2021/10/11 10:17:34;;;;;;;;;;;;;;;5.39;84.49;100645.88;4947418;28;19929;-78
2021/10/11 10:20:05;;;;;;;;;;;;;;;5.41;84.41;100630.97;4948231;28;20467;-78
2021/10/11 10:22:30;;;;;;;;;;;;;;;5.44;84.39;100631.81;4964917;28;20287;-80
2021/10/11 10:25:09;;;;;;;;;;;;;;;5.44;84.44;100628.28;4964707;28;19929;-79
2021/10/11 10:27:38;;;;;;;;;;;;;;;5.51;84.69;100632.63;4964640;28;20030;-78
2021/10/11 10:30:20;;;;;;;;;;;;;;;5.49;84.76;100621.25;4964401;28;19958;-78
2021/10/11 10:32:55;;;;;;;;;;;;;;;5.56;84.80;100641.34;4964524;28;20121;-79
2021/10/11 10:35:20;;;;;;;;;;;;;;;5.57;84.83;100639.59;4964451;28;19918;-79
2021/10/11 10:37:45;;;;;;;;;;;;;;;5.56;85.13;100630.81;4964726;28;19973;-79
2021/10/11 10:40:15;;;;;;;;;;;;;;;5.60;85.19;100624.66;4962933;28;19934;-79
2021/10/11 10:42:40;;;;;;;;;;;;;;;5.64;85.42;100633.38;4963792;28;19922;-79
2021/10/11 10:45:16;;;;;;;;;;;;;;;5.58;85.50;100623.78;4964778;28;19923;-78
2021/10/11 10:47:42;;;;;;;;;;;;;;;5.61;85.19;100630.78;4946912;28;20347;-78
2021/10/11 10:50:09;;;;;;;;;;;;;;;5.62;85.47;100624.66;4964909;28;19918;-78
2021/10/11 10:52:34;;;;;;;;;;;;;;;5.68;85.90;100619.34;4964698;28;19918;-78
2021/10/11 10:55:01;;;;;;;;;;;;;;;5.68;86.07;100624.59;4963991;28;19986;-79
2021/10/11 10:57:27;;;;;;;;;;;;;;;5.72;86.27;100612.28;4946330;28;19969;-79
2021/10/11 10:59:53;;;;;;;;;;;;;;;5.74;86.36;100619.25;4964060;28;19922;-79
2021/10/11 11:02:19;;;;;;;;;;;;;;;5.74;86.60;100618.41;4964418;28;20374;-79
2021/10/11 11:04:58;;;;;;;;;;;;;;;5.77;86.75;100621.84;4964211;28;19998;-79
2021/10/11 11:07:28;;;;;;;;;;;;;;;5.82;87.12;100620.06;4963786;28;19922;-80
2021/10/11 11:09:53;;;;;;;;;;;;;;;5.85;87.27;100613.91;4964309;28;19918;-77
2021/10/11 11:12:27;;;;;;;;;;;;;;;5.83;87.46;100610.41;4963169;28;19925;-78
2021/10/11 11:14:52;;;;;;;;;;;;;;;5.88;87.76;100598.09;4946152;28;19969;-77
2021/10/11 11:17:26;;;;;;;;;;;;;;;5.91;87.88;100587.53;4964265;28;19922;-78
2021/10/11 11:19:51;;;;;;;;;;;;;;;5.93;88.13;100585.75;4964435;28;19926;-78
2021/10/11 11:22:26;;;;;;;;;;;;;;;5.95;88.42;100588.38;4963692;28;20064;-78
2021/10/11 11:24:51;;;;;;;;;;;;;;;5.97;88.77;100587.50;4964366;28;19929;-77
2021/10/11 11:27:30;;;;;;;;;;;;;;;6.01;88.77;100588.34;4961477;28;19919;-78
2021/10/11 11:29:56;;;;;;;;;;;;;;;6.01;88.85;100598.84;4946859;28;19922;-78
2021/10/11 11:32:22;;;;;;;;;;;;;;;6.06;89.24;100589.13;4965570;28;19922;-77
2021/10/11 11:34:47;;;;;;;;;;;;;;;6.09;89.60;100580.34;4946035;28;19941;-79
2021/10/11 11:37:12;;;;;;;;;;;;;;;6.11;89.89;100583.81;4963907;28;19914;-77
2021/10/11 11:39:38;;;;;;;;;;;;;;;6.14;89.99;100581.16;4946833;28;19972;-78
2021/10/11 11:42:03;;;;;;;;;;;;;;;6.15;90.39;100573.25;4944568;28;20010;-78
2021/10/11 11:44:28;;;;;;;;;;;;;;;6.17;90.27;100573.22;4950756;28;19981;-78
2021/10/11 11:47:04;;;;;;;;;;;;;;;6.18;90.46;100573.22;4962524;28;19926;-79
2021/10/11 11:49:29;;;;;;;;;;;;;;;6.23;90.83;100567.03;4954102;28;19922;-78
2021/10/11 11:52:07;;;;;;;;;;;;;;;6.23;90.94;100569.66;4978699;28;20388;-77
2021/10/11 11:54:32;;;;;;;;;;;;;;;6.26;91.18;100562.59;4946169;28;19918;-78
2021/10/11 11:56:58;;;;;;;;;;;;;;;6.28;91.35;100566.06;4945566;28;19940;-80
2021/10/11 11:59:23;;;;;;;;;;;;;;;6.29;91.66;100566.97;4946418;28;20403;-79
2021/10/11 12:01:49;;;;;;;;;;;;;;;6.31;91.85;100562.53;4963474;28;20365;-79
2021/10/11 12:04:14;;;;;;;;;;;;;;;6.32;92.18;100553.78;4946461;28;19980;-79
2021/10/11 12:06:40;;;;;;;;;;;;;;;6.38;92.41;100555.44;4963060;28;20362;-78
2021/10/11 12:09:06;;;;;;;;;;;;;;;6.39;93.03;100549.28;4963665;28;19918;-79
2021/10/11 12:11:31;;;;;;;;;;;;;;;6.42;93.37;100546.63;4962339;28;19980;-78
2021/10/11 12:13:58;;;;;;;;;;;;;;;6.47;93.74;100552.69;4963293;28;19918;-79
2021/10/11 12:16:24;;;;;;;;;;;;;;;6.49;93.84;100550.88;4946081;28;20009;-79
2021/10/11 12:18:54;;;;;;;;;;;;;;;6.48;94.07;100550.03;4946177;28;19922;-80
2021/10/11 12:21:21;;;;;;;;;;;;;;;6.50;93.98;100552.63;4963123;28;20024;-79
2021/10/11 12:23:47;;;;;;;;;;;;;;;6.53;94.10;100552.59;4944814;28;20259;-79
2021/10/11 12:26:12;;;;;;;;;;;;;;;6.58;94.02;100553.41;4961611;28;19929;-78
2021/10/11 12:28:48;;;;;;;;;;;;;;;6.57;94.34;100549.00;4946286;28;20387;-78
2021/10/11 12:31:18;;;;;;;;;;;;;;;6.60;94.41;100546.34;4963621;28;19929;-78
2021/10/11 12:33:43;;;;;;;;;;;;;;;5.95;91.02;100557.69;4945806;28;19922;-78
2021/10/11 12:36:11;;;;;;;;;;;;;;;4.98;89.42;100555.09;4963477;28;20387;-78
2021/10/11 12:38:40;;;;;;;;;;;;;;;4.61;88.41;100551.00;4965775;28;19918;-79
2021/10/11 12:41:10;;;;;;;;;;;;;;;4.42;88.76;100544.97;4965694;28;19918;-79
2021/10/11 12:43:35;;;;;;;;;;;;;;;4.26;89.09;100538.03;4949323;28;20021;-79
2021/10/11 12:46:11;;;;;;;;;;;;;;;4.22;89.68;100541.59;4966279;28;20008;-78
2021/10/11 12:48:48;;;;;;;;;;;;;;;4.30;93.15;100540.66;4967145;28;19922;-79
2021/10/11 12:51:23;;;;;;;;;;;;;;;5.13;100.00;100533.97;4949397;28;19925;-78
2021/10/11 12:53:58;;;;;;;;;;;;;;;5.56;100.00;100538.81;4949883;28;19924;-79
2021/10/11 12:56:23;;;;;;;;;;;;;;;5.80;100.00;100542.06;4948187;28;20295;-78
2021/10/11 12:58:55;;;;;;;;;;;;;;;5.92;100.00;100536.69;4966589;28;19925;-79
2021/10/11 13:01:20;;;;;;;;;;;;;;;6.07;100.00;100545.31;4980371;28;19919;-78
2021/10/11 13:03:45;;;;;;;;;;;;;;;6.14;100.00;100539.06;4966229;28;20439;-79
2021/10/11 13:06:18;;;;;;;;;;;;;;;6.15;100.00;100538.19;4949402;28;19918;-78
2021/10/11 13:08:43;;;;;;;;;;;;;;;6.07;100.00;100543.53;4966050;28;20345;-79
2021/10/11 13:11:09;;;;;;;;;;;;;;;6.03;100.00;100544.47;4964799;28;19915;-78
2021/10/11 13:13:34;;;;;;;;;;;;;;;5.84;100.00;100546.41;4965928;28;19918;-80
2021/10/11 13:16:03;;;;;;;;;;;;;;;5.75;100.00;100539.50;4966078;28;19957;-78
2021/10/11 13:18:28;;;;;;;;;;;;;;;5.71;100.00;100539.53;4966328;28;19965;-80
2021/10/11 13:20:54;;;;;;;;;;;;;;;5.78;100.00;100538.59;4948952;28;19968;-79
2021/10/11 13:23:19;;;;;;;;;;;;;;;5.90;100.00;100532.31;4965794;28;19942;-79
2021/10/11 13:25:44;;;;;;;;;;;;;;;5.94;100.00;100537.53;4964390;28;20441;-79
2021/10/11 13:28:10;;;;;;;;;;;;;;;6.09;100.00;100533.00;4966232;28;19918;-79
2021/10/11 13:42:48;;;;;;;;;;;;;;;6.98;100.00;100515.91;4911106;28;19924;-79
2021/10/11 14:28:42;;;;;;;;;;;;;;;5.55;100.00;100512.53;4977599;28;20312;-78
2021/10/11 14:31:27;;;;;;;;;;;;;;;4.91;100.00;100514.88;4948080;28;19918;-78
2021/10/11 16:01:17;;;;;;;;;;;;;;;1.74;89.99;100508.41;4963146;28;19977;-78
2021/10/11 16:03:53;;;;;;;;;;;;;;;1.69;90.13;100505.78;4962089;28;20346;-79
2021/10/11 16:06:22;;;;;;;;;;;;;;;1.89;92.54;100512.84;4962432;28;20283;-78
2021/10/11 16:08:47;;;;;;;;;;;;;;;1.99;94.59;100507.66;4963176;28;19980;-77
2021/10/11 16:11:13;;;;;;;;;;;;;;;2.49;98.29;100508.66;4943851;28;19918;-78
2021/10/11 16:13:38;;;;;;;;;;;;;;;2.84;100.00;100502.59;4948834;28;19929;-77
2021/10/11 16:16:04;;;;;;;;;;;;;;;2.80;100.00;100505.19;4967642;28;19925;-78
2021/10/11 16:18:30;;;;;;;;;;;;;;;2.94;100.00;100505.22;4966931;28;19918;-80
2021/10/11 16:21:03;;;;;;;;;;;;;;;3.06;100.00;100510.41;4949291;28;19922;-78
2021/10/11 16:23:28;;;;;;;;;;;;;;;3.06;100.00;100507.81;4948774;28;20012;-78
2021/10/11 16:25:55;;;;;;;;;;;;;;;3.20;100.00;100505.19;4947786;28;20365;-79
2021/10/11 16:28:22;;;;;;;;;;;;;;;3.25;100.00;100511.28;4966329;28;20394;-78
2021/10/11 16:30:47;;;;;;;;;;;;;;;3.32;100.00;100515.66;4965870;28;19922;-79
2021/10/11 16:33:12;;;;;;;;;;;;;;;3.30;100.00;100514.75;4949512;28;19918;-78
2021/10/11 16:35:37;;;;;;;;;;;;;;;3.31;100.00;100518.28;4967252;28;19928;-78
2021/10/11 16:38:03;;;;;;;;;;;;;;;3.39;100.00;100512.13;4950337;28;20013;-78
2021/10/11 16:40:28;;;;;;;;;;;;;;;3.30;100.00;100512.13;4965237;28;19930;-77
2021/10/11 16:42:53;;;;;;;;;;;;;;;3.43;100.00;100518.22;4979855;28;19961;-78
2021/10/11 16:45:19;;;;;;;;;;;;;;;3.38;100.00;100520.00;4949694;28;19926;-77
2021/10/11 16:47:47;;;;;;;;;;;;;;;3.38;100.00;100517.38;4965335;28;20307;-78
2021/10/11 16:50:13;;;;;;;;;;;;;;;3.34;100.00;100520.88;4967317;28;19980;-77
2021/10/11 16:52:38;;;;;;;;;;;;;;;3.43;100.00;100518.22;4966806;28;19931;-78
2021/10/11 16:55:04;;;;;;;;;;;;;;;3.46;100.00;100518.22;4949927;28;20021;-79
2021/10/11 16:57:29;;;;;;;;;;;;;;;3.48;100.00;100515.59;4965516;28;19933;-79
2021/10/11 16:59:55;;;;;;;;;;;;;;;3.53;100.00;100524.34;4965400;28;20377;-78
2021/10/11 17:02:20;;;;;;;;;;;;;;;3.57;100.00;100521.69;4949168;28;20415;-79
2021/10/11 17:04:45;;;;;;;;;;;;;;;3.60;100.00;100532.16;4966970;28;19925;-78
2021/10/11 17:07:10;;;;;;;;;;;;;;;3.65;100.00;100534.78;4949351;28;20398;-79
2021/10/11 17:09:36;;;;;;;;;;;;;;;3.71;100.00;100540.00;4966626;28;19944;-78
2021/10/11 17:12:01;;;;;;;;;;;;;;;3.71;100.00;100536.53;4966052;28;19930;-79
2021/10/11 17:14:27;;;;;;;;;;;;;;;3.75;100.00;100539.13;4966793;28;19918;-78
2021/10/11 17:16:52;;;;;;;;;;;;;;;3.74;100.00;100540.00;4966460;28;20294;-79
2021/10/11 17:19:18;;;;;;;;;;;;;;;3.80;100.00;100539.13;4964815;28;19918;-78
2021/10/11 17:21:44;;;;;;;;;;;;;;;3.83;100.00;100533.88;4966145;28;19922;-78
2021/10/11 17:24:10;;;;;;;;;;;;;;;3.80;100.00;100544.38;4966095;28;20356;-79
2021/10/11 17:26:35;;;;;;;;;;;;;;;3.85;100.00;100536.50;4965257;28;19933;-79
2021/10/11 17:29:00;;;;;;;;;;;;;;;3.84;100.00;100542.59;4966316;28;19918;-78
2021/10/11 17:31:26;;;;;;;;;;;;;;;3.87;100.00;100539.97;4965257;28;19966;-80
2021/10/11 17:33:51;;;;;;;;;;;;;;;3.86;100.00;100546.09;4948059;28;19979;-79
2021/10/11 17:36:17;;;;;;;;;;;;;;;3.85;100.00;100554.84;4948227;28;19926;-80
2021/10/11 17:38:42;;;;;;;;;;;;;;;3.87;100.00;100555.69;4948453;28;19926;-78
2021/10/11 17:41:08;;;;;;;;;;;;;;;3.90;100.00;100555.69;4970278;28;19957;-78
2021/10/11 17:43:33;;;;;;;;;;;;;;;3.91;100.00;100554.78;4965555;28;19926;-77
2021/10/11 17:45:58;;;;;;;;;;;;;;;3.91;100.00;100562.66;4947789;28;19926;-78
2021/10/11 17:48:24;;;;;;;;;;;;;;;3.91;100.00;100558.31;4943971;28;19934;-80
2021/10/11 17:50:49;;;;;;;;;;;;;;;3.95;100.00;100565.28;4965672;28;19930;-78
2021/10/11 17:53:14;;;;;;;;;;;;;;;3.97;100.00;100562.66;4966343;28;19989;-79
2021/10/11 17:55:40;;;;;;;;;;;;;;;3.99;100.00;100560.91;4965036;28;19922;-78
2021/10/11 17:58:05;;;;;;;;;;;;;;;3.97;100.00;100563.53;4967470;28;19922;-80
2021/10/11 18:00:31;;;;;;;;;;;;;;;4.04;100.00;100563.50;4966084;28;20282;-78
2021/10/11 18:02:56;;;;;;;;;;;;;;;4.00;100.00;100567.88;4965849;28;19965;-79
2021/10/11 18:05:21;;;;;;;;;;;;;;;4.08;100.00;100565.25;4950659;28;19930;-78
2021/10/11 18:07:46;;;;;;;;;;;;;;;4.06;100.00;100557.38;4951011;28;20298;-78
2021/10/11 18:10:12;;;;;;;;;;;;;;;4.10;100.00;100563.47;4964588;28;20058;-79
2021/10/11 18:12:37;;;;;;;;;;;;;;;4.09;100.00;100567.84;4948174;28;19926;-78
2021/10/11 18:15:06;;;;;;;;;;;;;;;4.18;100.00;100562.59;4965500;28;19919;-79
2021/10/11 18:17:31;;;;;;;;;;;;;;;4.28;100.00;100568.66;4967452;28;19948;-78
2021/10/11 18:19:56;;;;;;;;;;;;;;;4.24;99.37;100568.66;4966970;28;20374;-79
2021/10/11 18:22:22;;;;;;;;;;;;;;;4.28;98.86;100571.28;4967004;28;19929;-78
2021/10/11 18:24:47;;;;;;;;;;;;;;;4.29;98.22;100569.50;4969923;28;19922;-78
2021/10/11 18:27:12;;;;;;;;;;;;;;;4.26;97.49;100575.66;4946957;28;20017;-79
2021/10/11 18:29:38;;;;;;;;;;;;;;;4.28;96.57;100571.28;4948269;28;19927;-78
2021/10/11 18:32:03;;;;;;;;;;;;;;;4.30;96.33;100571.28;4964584;28;19923;-79
2021/10/11 18:34:28;;;;;;;;;;;;;;;4.33;95.71;100566.88;4967916;28;19926;-78
2021/10/11 18:36:54;;;;;;;;;;;;;;;4.33;95.00;100556.38;4964314;28;19923;-79
2021/10/11 18:39:19;;;;;;;;;;;;;;;4.38;94.65;100545.00;4964914;28;19977;-79
2021/10/11 18:41:44;;;;;;;;;;;;;;;4.38;93.81;100537.13;4967290;28;19926;-78
2021/10/11 18:44:09;;;;;;;;;;;;;;;4.42;93.46;100539.72;4950748;28;20390;-78
2021/10/11 18:46:35;;;;;;;;;;;;;;;4.48;93.12;100550.19;4967334;28;20354;-79
2021/10/11 18:49:00;;;;;;;;;;;;;;;4.52;92.33;100551.91;4976783;28;19933;-79
2021/10/11 18:51:25;;;;;;;;;;;;;;;4.49;91.80;100554.53;4965870;28;20020;-80
2021/10/11 18:53:50;;;;;;;;;;;;;;;4.51;91.76;100555.41;4950547;28;20296;-78
2021/10/11 18:56:16;;;;;;;;;;;;;;;4.52;91.11;100557.16;4974805;28;19929;-78
2021/10/11 18:58:41;;;;;;;;;;;;;;;4.53;90.76;100564.16;4968528;28;20274;-79
2021/10/11 19:01:07;;;;;;;;;;;;;;;4.59;90.54;100565.00;4966664;28;19949;-78
2021/10/11 19:03:33;;;;;;;;;;;;;;;4.58;90.36;100560.63;4946965;28;19930;-80
2021/10/11 19:05:59;;;;;;;;;;;;;;;4.56;90.08;100563.25;4965715;28;19981;-79
2021/10/11 19:08:24;;;;;;;;;;;;;;;4.60;89.64;100564.13;4946778;28;20389;-79
2021/10/11 19:10:52;;;;;;;;;;;;;;;4.65;89.48;100567.59;4946046;28;19929;-79
2021/10/11 19:13:18;;;;;;;;;;;;;;;4.64;89.19;100574.59;4964939;28;20014;-79
2021/10/11 19:15:45;;;;;;;;;;;;;;;4.64;88.70;100571.09;4946643;28;20055;-80
2021/10/11 19:18:11;;;;;;;;;;;;;;;4.67;88.69;100571.06;4963791;28;19955;-79
2021/10/11 19:20:37;;;;;;;;;;;;;;;4.69;88.61;100571.91;4946815;28;19922;-80
2021/10/11 19:23:02;;;;;;;;;;;;;;;4.72;88.21;100564.03;4963999;28;19926;-79
2021/10/11 19:25:27;;;;;;;;;;;;;;;4.73;88.18;100560.53;4963576;28;20744;-78
2021/10/11 19:27:53;;;;;;;;;;;;;;;4.70;87.99;100558.78;4957991;28;20020;-79
2021/10/11 19:30:19;;;;;;;;;;;;;;;4.78;87.85;100564.00;4964182;28;19984;-79
2021/10/11 19:32:44;;;;;;;;;;;;;;;4.83;87.83;100569.22;4962901;28;19918;-78
2021/10/11 19:35:09;;;;;;;;;;;;;;;4.81;87.75;100569.22;4947285;28;20290;-78
2021/10/11 19:37:35;;;;;;;;;;;;;;;4.84;87.67;100569.22;4946355;28;20354;-79
2021/10/11 19:40:01;;;;;;;;;;;;;;;4.85;87.41;100564.81;4976280;28;20757;-78
2021/10/11 19:42:26;;;;;;;;;;;;;;;4.90;87.28;100568.31;4944737;28;20009;-78
2021/10/11 19:44:52;;;;;;;;;;;;;;;4.90;87.09;100569.16;4963385;28;19928;-78
2021/10/11 19:47:17;;;;;;;;;;;;;;;4.90;86.95;100563.06;4945623;28;20064;-79
2021/10/11 19:49:42;;;;;;;;;;;;;;;4.94;86.94;100566.53;4946492;28;19933;-79
2021/10/11 19:52:07;;;;;;;;;;;;;;;4.99;86.80;100562.97;4963216;28;20369;-79
2021/10/11 19:54:33;;;;;;;;;;;;;;;4.98;86.60;100562.97;4962553;28;20400;-79
2021/10/11 19:56:58;;;;;;;;;;;;;;;4.99;86.70;100564.72;4945893;28;19926;-78
2021/10/11 19:59:23;;;;;;;;;;;;;;;5.03;86.33;100569.09;4945147;28;19965;-79
2021/10/11 20:01:49;;;;;;;;;;;;;;;5.01;86.02;100558.59;4946678;28;19938;-79
2021/10/11 20:04:14;;;;;;;;;;;;;;;5.02;86.18;100562.94;4962431;28;20009;-79
2021/10/11 20:06:39;;;;;;;;;;;;;;;5.02;85.59;100560.31;4975891;28;19988;-78
2021/10/11 20:09:05;;;;;;;;;;;;;;;5.09;85.65;100558.53;4962550;28;19923;-77
2021/10/11 20:11:30;;;;;;;;;;;;;;;5.11;85.55;100554.13;4944431;28;19918;-78
2021/10/11 20:13:56;;;;;;;;;;;;;;;5.18;85.22;100557.56;4962702;28;19918;-78
2021/10/11 20:16:21;;;;;;;;;;;;;;;5.15;85.08;100550.56;4962933;28;19930;-78
2021/10/11 20:18:46;;;;;;;;;;;;;;;5.18;84.91;100557.56;4962097;28;20362;-80
2021/10/11 20:21:11;;;;;;;;;;;;;;;5.19;84.92;100554.94;4962902;28;20305;-79
2021/10/11 20:23:37;;;;;;;;;;;;;;;5.19;84.92;100554.06;4961881;28;19926;-78
2021/10/11 20:26:02;;;;;;;;;;;;;;;5.23;84.75;100553.13;4942789;28;19933;-79
2021/10/11 20:28:27;;;;;;;;;;;;;;;5.23;84.68;100551.41;4962456;28;20021;-78
2021/10/11 20:30:56;;;;;;;;;;;;;;;5.26;84.49;100551.38;4944598;28;19930;-79
2021/10/11 20:33:22;;;;;;;;;;;;;;;5.28;84.37;100549.59;4962617;28;20327;-78
2021/10/11 20:35:47;;;;;;;;;;;;;;;5.33;84.50;100552.19;4960993;28;20379;-78
2021/10/11 20:38:12;;;;;;;;;;;;;;;5.33;84.73;100549.56;4961972;28;19929;-79
2021/10/11 20:40:37;;;;;;;;;;;;;;;5.35;84.72;100544.28;4960969;28;20295;-80
2021/10/11 20:43:03;;;;;;;;;;;;;;;5.37;84.72;100553.03;4944944;28;19922;-79
2021/10/11 20:45:28;;;;;;;;;;;;;;;5.37;84.68;100547.78;4962099;28;19937;-80
2021/10/11 20:47:54;;;;;;;;;;;;;;;5.36;84.35;100548.66;4962520;28;20389;-79
2021/10/11 20:50:19;;;;;;;;;;;;;;;5.41;84.31;100549.50;4962115;28;20328;-78
2021/10/11 20:52:45;;;;;;;;;;;;;;;5.39;84.21;100541.63;4946921;28;19922;-80
2021/10/11 20:55:10;;;;;;;;;;;;;;;5.41;84.15;100549.50;4962892;28;19929;-79
2021/10/11 20:57:36;;;;;;;;;;;;;;;5.41;84.12;100534.59;4945237;28;19922;-78
2021/10/11 21:00:03;;;;;;;;;;;;;;;5.43;83.86;100539.84;4965578;28;19930;-79
2021/10/11 21:02:28;;;;;;;;;;;;;;;5.43;83.99;100526.69;4979825;28;19933;-79
2021/10/11 21:04:53;;;;;;;;;;;;;;;5.51;83.92;100531.88;4966957;28;19922;-77
2021/10/11 21:07:19;;;;;;;;;;;;;;;5.52;83.72;100529.22;4965180;28;19926;-78
2021/10/11 21:09:44;;;;;;;;;;;;;;;5.50;83.66;100530.13;4951777;28;19919;-78
2021/10/11 21:12:10;;;;;;;;;;;;;;;5.56;83.70;100528.28;4950348;28;20384;-79
2021/10/11 21:14:35;;;;;;;;;;;;;;;5.55;83.59;100521.31;4981124;28;19969;-79